Aeroporto :
LOGIN :

Iscrizione | Disclaimer

   EN    FR    IT 

 










Sommario :    VFR   VFR Marginale   IFR   IFR Intensivo   IFR Molto Intensivo
Visibilità : 
Base nubi : 
>= 8 km
>= 3000ft
5 / 8 km
1000 / 3000 ft
1500m / 5 km
500 / 1000 ft
800 / 1500m
200 / 500 ft
< 800m
< 200 ft
Simboli :   Temporali  Nebbia  Neve Forte  Precipitazioni Forti  Vento > 20 kt
SIGMETs :   Varie  Temporali  Ghiacco  Turbolenza  Onda orograficha  Ceneri Vulcaniche







- Altitudine del aeroporto : 72 ft
- Codice IATA : UDE


EHVK - Volkel Airbase

ULTIMO METAR :
  • 222125Z AUTO 31001KT 9999 NCD 15/13 Q1025 BLU

METARs OBSOLETI :
  • 222055Z AUTO 31001KT 9999 FEW390 15/13 Q1025 BLU
  • 222025Z AUTO VRB02KT 9999 NCD 16/13 Q1025 BLU
  • 221955Z AUTO 00000KT 9999 NCD 17/13 Q1025 BLU
  • 221925Z AUTO VRB01KT 9999 NCD 19/13 Q1025 BLU
  • 221855Z AUTO 32003KT 270V360 9999 NCD 20/13 Q1025 BLU

TAF TAF EHVK
Valido dal 22 a 21 ore il 23 a 09 ore UTC


222011Z 2221/2309 VRB02KT CAVOK
Nessun NOTAM noto per questo aeroporto.



MetMap, La meteo Aeronautica in un colpo d'occhio ! - Copyright ORBIFLY Dicembre 2007 - Disclaimer

ORBIFLY MET'MAP TEAM :

Programmazione e sviluppo : Alexandra Zaïnal
Concezione e sviluppo : Baudouin d'Aumeries
Co-Programmazione e sviluppo : Marc-Olivier Méhu
Supporto tecnico e logistico : Manuel Goepfert
Aiuto per la traduzione : Arnaldo La Scala

Contatto : metmap@orbifly.com




FONTI E CREDITI :

   NOAA